sensor_id;sensor_type;location;lat;lon;timestamp;P1;durP1;ratioP1;P2;durP2;ratioP2
23444;SDS011;11895;48.738;9.320;2023-04-22T00:01:24;6.88;;;3.53;;
23444;SDS011;11895;48.738;9.320;2023-04-22T00:03:52;4.73;;;3.23;;
23444;SDS011;11895;48.738;9.320;2023-04-22T00:06:20;7.10;;;3.90;;
23444;SDS011;11895;48.738;9.320;2023-04-22T00:08:49;6.40;;;3.58;;
23444;SDS011;11895;48.738;9.320;2023-04-22T00:11:17;7.93;;;4.55;;
23444;SDS011;11895;48.738;9.320;2023-04-22T00:13:45;8.15;;;3.55;;
23444;SDS011;11895;48.738;9.320;2023-04-22T00:16:13;6.03;;;3.55;;
23444;SDS011;11895;48.738;9.320;2023-04-22T00:18:41;4.85;;;2.88;;
23444;SDS011;11895;48.738;9.320;2023-04-22T00:21:08;10.52;;;4.10;;
23444;SDS011;11895;48.738;9.320;2023-04-22T00:23:36;7.35;;;3.28;;
23444;SDS011;11895;48.738;9.320;2023-04-22T00:26:04;11.05;;;3.67;;
23444;SDS011;11895;48.738;9.320;2023-04-22T00:28:32;7.13;;;3.45;;
23444;SDS011;11895;48.738;9.320;2023-04-22T00:31:00;6.72;;;3.40;;
23444;SDS011;11895;48.738;9.320;2023-04-22T00:33:30;5.28;;;2.97;;
23444;SDS011;11895;48.738;9.320;2023-04-22T00:35:58;6.22;;;2.70;;
23444;SDS011;11895;48.738;9.320;2023-04-22T00:38:25;11.25;;;3.15;;
23444;SDS011;11895;48.738;9.320;2023-04-22T00:40:53;5.53;;;3.00;;
23444;SDS011;11895;48.738;9.320;2023-04-22T00:43:21;10.23;;;3.35;;
23444;SDS011;11895;48.738;9.320;2023-04-22T00:45:48;9.13;;;3.47;;
23444;SDS011;11895;48.738;9.320;2023-04-22T00:48:21;8.15;;;4.30;;
23444;SDS011;11895;48.738;9.320;2023-04-22T00:50:54;7.78;;;3.00;;
23444;SDS011;11895;48.738;9.320;2023-04-22T00:53:22;5.57;;;2.97;;
23444;SDS011;11895;48.738;9.320;2023-04-22T00:55:50;4.65;;;3.63;;
23444;SDS011;11895;48.738;9.320;2023-04-22T00:58:17;4.55;;;3.08;;
23444;SDS011;11895;48.738;9.320;2023-04-22T01:00:46;9.70;;;3.28;;
23444;SDS011;11895;48.738;9.320;2023-04-22T01:03:14;6.15;;;3.22;;
23444;SDS011;11895;48.738;9.320;2023-04-22T01:05:44;9.00;;;3.70;;
23444;SDS011;11895;48.738;9.320;2023-04-22T01:08:14;5.05;;;3.20;;
23444;SDS011;11895;48.738;9.320;2023-04-22T01:10:43;9.88;;;3.10;;
23444;SDS011;11895;48.738;9.320;2023-04-22T01:13:11;5.78;;;2.95;;
23444;SDS011;11895;48.738;9.320;2023-04-22T01:15:39;12.55;;;3.38;;
23444;SDS011;11895;48.738;9.320;2023-04-22T01:18:07;7.57;;;3.33;;
23444;SDS011;11895;48.738;9.320;2023-04-22T01:20:36;5.90;;;3.30;;
23444;SDS011;11895;48.738;9.320;2023-04-22T01:23:04;8.02;;;3.55;;
23444;SDS011;11895;48.738;9.320;2023-04-22T01:25:42;3.65;;;3.25;;
23444;SDS011;11895;48.738;9.320;2023-04-22T01:28:11;6.63;;;3.40;;
23444;SDS011;11895;48.738;9.320;2023-04-22T01:30:41;7.68;;;3.55;;
23444;SDS011;11895;48.738;9.320;2023-04-22T01:33:10;6.93;;;3.33;;
23444;SDS011;11895;48.738;9.320;2023-04-22T01:35:38;3.58;;;2.75;;
23444;SDS011;11895;48.738;9.320;2023-04-22T01:38:07;5.40;;;3.25;;
23444;SDS011;11895;48.738;9.320;2023-04-22T01:40:37;8.40;;;3.38;;
23444;SDS011;11895;48.738;9.320;2023-04-22T01:43:05;6.22;;;3.45;;
23444;SDS011;11895;48.738;9.320;2023-04-22T01:45:35;5.57;;;3.72;;
23444;SDS011;11895;48.738;9.320;2023-04-22T01:48:04;6.82;;;3.40;;
23444;SDS011;11895;48.738;9.320;2023-04-22T01:50:32;6.20;;;4.15;;
23444;SDS011;11895;48.738;9.320;2023-04-22T01:53:01;6.38;;;3.85;;
23444;SDS011;11895;48.738;9.320;2023-04-22T01:55:29;7.65;;;3.92;;
23444;SDS011;11895;48.738;9.320;2023-04-22T01:58:02;7.97;;;4.60;;
23444;SDS011;11895;48.738;9.320;2023-04-22T02:00:30;6.88;;;3.58;;
23444;SDS011;11895;48.738;9.320;2023-04-22T02:02:58;5.88;;;3.80;;
23444;SDS011;11895;48.738;9.320;2023-04-22T02:05:26;7.90;;;4.32;;
23444;SDS011;11895;48.738;9.320;2023-04-22T02:07:54;9.27;;;5.00;;
23444;SDS011;11895;48.738;9.320;2023-04-22T02:10:22;10.43;;;4.88;;
23444;SDS011;11895;48.738;9.320;2023-04-22T02:12:50;6.68;;;4.90;;
23444;SDS011;11895;48.738;9.320;2023-04-22T02:15:18;7.03;;;4.70;;
23444;SDS011;11895;48.738;9.320;2023-04-22T02:17:46;10.43;;;4.72;;
23444;SDS011;11895;48.738;9.320;2023-04-22T02:20:14;10.32;;;5.40;;
23444;SDS011;11895;48.738;9.320;2023-04-22T02:22:43;7.47;;;5.23;;
23444;SDS011;11895;48.738;9.320;2023-04-22T02:25:11;7.72;;;4.78;;
23444;SDS011;11895;48.738;9.320;2023-04-22T02:27:39;8.07;;;5.07;;
23444;SDS011;11895;48.738;9.320;2023-04-22T02:30:07;7.07;;;5.50;;
23444;SDS011;11895;48.738;9.320;2023-04-22T02:32:36;7.93;;;5.05;;
23444;SDS011;11895;48.738;9.320;2023-04-22T02:35:05;6.90;;;4.50;;
23444;SDS011;11895;48.738;9.320;2023-04-22T02:37:34;8.32;;;5.00;;
23444;SDS011;11895;48.738;9.320;2023-04-22T02:40:03;7.30;;;5.05;;
23444;SDS011;11895;48.738;9.320;2023-04-22T02:42:32;7.63;;;4.80;;
23444;SDS011;11895;48.738;9.320;2023-04-22T02:45:01;12.02;;;5.45;;
23444;SDS011;11895;48.738;9.320;2023-04-22T02:47:29;8.80;;;5.22;;
23444;SDS011;11895;48.738;9.320;2023-04-22T02:49:57;9.20;;;6.28;;
23444;SDS011;11895;48.738;9.320;2023-04-22T02:52:26;12.05;;;5.95;;
23444;SDS011;11895;48.738;9.320;2023-04-22T02:54:54;11.23;;;6.82;;
23444;SDS011;11895;48.738;9.320;2023-04-22T02:57:22;8.30;;;5.70;;
23444;SDS011;11895;48.738;9.320;2023-04-22T02:59:49;10.13;;;5.90;;
23444;SDS011;11895;48.738;9.320;2023-04-22T03:02:19;8.77;;;5.60;;
23444;SDS011;11895;48.738;9.320;2023-04-22T03:05:16;13.15;;;5.40;;
23444;SDS011;11895;48.738;9.320;2023-04-22T03:07:44;9.45;;;5.90;;
23444;SDS011;11895;48.738;9.320;2023-04-22T03:10:15;9.43;;;5.88;;
23444;SDS011;11895;48.738;9.320;2023-04-22T03:12:45;9.70;;;6.10;;
23444;SDS011;11895;48.738;9.320;2023-04-22T03:17:46;15.10;;;5.80;;
23444;SDS011;11895;48.738;9.320;2023-04-22T03:20:16;12.38;;;5.78;;
23444;SDS011;11895;48.738;9.320;2023-04-22T03:22:46;8.70;;;6.03;;
23444;SDS011;11895;48.738;9.320;2023-04-22T03:25:15;8.35;;;5.70;;
23444;SDS011;11895;48.738;9.320;2023-04-22T03:27:48;12.27;;;6.03;;
23444;SDS011;11895;48.738;9.320;2023-04-22T03:30:17;10.03;;;5.67;;
23444;SDS011;11895;48.738;9.320;2023-04-22T03:35:18;10.55;;;6.15;;
23444;SDS011;11895;48.738;9.320;2023-04-22T03:37:49;8.73;;;5.45;;
23444;SDS011;11895;48.738;9.320;2023-04-22T03:40:22;11.43;;;5.88;;
23444;SDS011;11895;48.738;9.320;2023-04-22T03:42:49;8.88;;;5.40;;
23444;SDS011;11895;48.738;9.320;2023-04-22T03:45:19;9.07;;;5.18;;
23444;SDS011;11895;48.738;9.320;2023-04-22T03:47:58;14.32;;;6.30;;
23444;SDS011;11895;48.738;9.320;2023-04-22T03:50:35;12.73;;;6.30;;
23444;SDS011;11895;48.738;9.320;2023-04-22T03:53:03;10.75;;;5.97;;
23444;SDS011;11895;48.738;9.320;2023-04-22T03:55:31;9.57;;;5.50;;
23444;SDS011;11895;48.738;9.320;2023-04-22T03:57:59;8.10;;;6.10;;
23444;SDS011;11895;48.738;9.320;2023-04-22T04:00:28;8.93;;;6.32;;
23444;SDS011;11895;48.738;9.320;2023-04-22T04:03:06;8.20;;;4.97;;
23444;SDS011;11895;48.738;9.320;2023-04-22T04:08:04;7.05;;;5.35;;
23444;SDS011;11895;48.738;9.320;2023-04-22T04:10:33;10.50;;;5.95;;
23444;SDS011;11895;48.738;9.320;2023-04-22T04:13:02;9.20;;;5.50;;
23444;SDS011;11895;48.738;9.320;2023-04-22T04:15:39;10.35;;;6.30;;
23444;SDS011;11895;48.738;9.320;2023-04-22T04:18:08;8.27;;;6.00;;
23444;SDS011;11895;48.738;9.320;2023-04-22T04:20:37;9.85;;;5.80;;
23444;SDS011;11895;48.738;9.320;2023-04-22T04:23:10;8.00;;;5.22;;
23444;SDS011;11895;48.738;9.320;2023-04-22T04:25:38;12.63;;;5.10;;
23444;SDS011;11895;48.738;9.320;2023-04-22T04:28:11;11.55;;;5.35;;
23444;SDS011;11895;48.738;9.320;2023-04-22T04:30:39;9.32;;;5.22;;
23444;SDS011;11895;48.738;9.320;2023-04-22T04:33:08;9.40;;;5.82;;
23444;SDS011;11895;48.738;9.320;2023-04-22T04:35:39;7.72;;;5.70;;
23444;SDS011;11895;48.738;9.320;2023-04-22T04:38:11;8.85;;;5.60;;
23444;SDS011;11895;48.738;9.320;2023-04-22T04:40:40;9.10;;;6.18;;
23444;SDS011;11895;48.738;9.320;2023-04-22T04:43:13;9.23;;;5.72;;
23444;SDS011;11895;48.738;9.320;2023-04-22T04:45:47;12.32;;;6.47;;
23444;SDS011;11895;48.738;9.320;2023-04-22T04:48:21;10.05;;;5.53;;
23444;SDS011;11895;48.738;9.320;2023-04-22T04:50:54;13.93;;;6.97;;
23444;SDS011;11895;48.738;9.320;2023-04-22T04:53:24;15.73;;;9.85;;
23444;SDS011;11895;48.738;9.320;2023-04-22T04:55:53;10.67;;;5.43;;
23444;SDS011;11895;48.738;9.320;2023-04-22T04:58:25;8.70;;;6.22;;
23444;SDS011;11895;48.738;9.320;2023-04-22T05:01:06;8.10;;;6.13;;
23444;SDS011;11895;48.738;9.320;2023-04-22T05:03:34;7.88;;;6.18;;
23444;SDS011;11895;48.738;9.320;2023-04-22T05:08:34;10.30;;;6.38;;
23444;SDS011;11895;48.738;9.320;2023-04-22T05:11:07;10.18;;;6.30;;
23444;SDS011;11895;48.738;9.320;2023-04-22T05:13:34;14.40;;;6.65;;
23444;SDS011;11895;48.738;9.320;2023-04-22T05:16:05;14.68;;;6.55;;
23444;SDS011;11895;48.738;9.320;2023-04-22T05:18:33;10.40;;;6.32;;
23444;SDS011;11895;48.738;9.320;2023-04-22T05:21:05;8.40;;;6.32;;
23444;SDS011;11895;48.738;9.320;2023-04-22T05:23:35;20.08;;;7.90;;
23444;SDS011;11895;48.738;9.320;2023-04-22T05:26:04;11.77;;;6.82;;
23444;SDS011;11895;48.738;9.320;2023-04-22T05:28:37;11.70;;;6.88;;
23444;SDS011;11895;48.738;9.320;2023-04-22T05:31:06;12.60;;;7.53;;
23444;SDS011;11895;48.738;9.320;2023-04-22T05:33:35;10.30;;;6.53;;
23444;SDS011;11895;48.738;9.320;2023-04-22T05:36:04;10.20;;;6.82;;
23444;SDS011;11895;48.738;9.320;2023-04-22T05:38:34;9.90;;;6.50;;
23444;SDS011;11895;48.738;9.320;2023-04-22T05:41:01;13.88;;;6.60;;
23444;SDS011;11895;48.738;9.320;2023-04-22T05:43:30;12.43;;;6.97;;
23444;SDS011;11895;48.738;9.320;2023-04-22T05:46:07;9.93;;;6.85;;
23444;SDS011;11895;48.738;9.320;2023-04-22T05:48:37;10.07;;;6.70;;
23444;SDS011;11895;48.738;9.320;2023-04-22T05:51:09;13.52;;;6.10;;
23444;SDS011;11895;48.738;9.320;2023-04-22T05:53:36;14.38;;;7.20;;
23444;SDS011;11895;48.738;9.320;2023-04-22T05:56:04;10.23;;;6.88;;
23444;SDS011;11895;48.738;9.320;2023-04-22T05:58:32;10.20;;;6.88;;
23444;SDS011;11895;48.738;9.320;2023-04-22T06:01:14;14.68;;;7.10;;
23444;SDS011;11895;48.738;9.320;2023-04-22T06:03:56;13.98;;;7.82;;
23444;SDS011;11895;48.738;9.320;2023-04-22T06:06:25;12.80;;;7.82;;
23444;SDS011;11895;48.738;9.320;2023-04-22T06:08:53;14.07;;;7.32;;
23444;SDS011;11895;48.738;9.320;2023-04-22T06:11:21;15.23;;;8.57;;
23444;SDS011;11895;48.738;9.320;2023-04-22T06:13:49;15.45;;;9.02;;
23444;SDS011;11895;48.738;9.320;2023-04-22T06:16:17;17.85;;;8.60;;
23444;SDS011;11895;48.738;9.320;2023-04-22T06:18:45;12.25;;;7.93;;
23444;SDS011;11895;48.738;9.320;2023-04-22T06:21:13;12.20;;;7.88;;
23444;SDS011;11895;48.738;9.320;2023-04-22T06:23:41;13.13;;;7.85;;
23444;SDS011;11895;48.738;9.320;2023-04-22T06:26:09;12.63;;;8.15;;
23444;SDS011;11895;48.738;9.320;2023-04-22T06:28:40;12.68;;;7.38;;
23444;SDS011;11895;48.738;9.320;2023-04-22T06:31:13;13.60;;;7.60;;
23444;SDS011;11895;48.738;9.320;2023-04-22T06:33:41;10.75;;;6.72;;
23444;SDS011;11895;48.738;9.320;2023-04-22T06:36:09;14.68;;;8.27;;
23444;SDS011;11895;48.738;9.320;2023-04-22T06:38:39;12.13;;;8.88;;
23444;SDS011;11895;48.738;9.320;2023-04-22T06:41:26;23.35;;;14.10;;
23444;SDS011;11895;48.738;9.320;2023-04-22T06:43:58;14.60;;;9.88;;
23444;SDS011;11895;48.738;9.320;2023-04-22T06:46:49;9.13;;;6.10;;
23444;SDS011;11895;48.738;9.320;2023-04-22T06:49:38;8.18;;;5.95;;
23444;SDS011;11895;48.738;9.320;2023-04-22T06:52:07;7.72;;;5.57;;
23444;SDS011;11895;48.738;9.320;2023-04-22T06:54:35;8.18;;;4.82;;
23444;SDS011;11895;48.738;9.320;2023-04-22T06:57:03;7.15;;;5.10;;
23444;SDS011;11895;48.738;9.320;2023-04-22T06:59:33;6.35;;;4.85;;
23444;SDS011;11895;48.738;9.320;2023-04-22T07:04:35;7.05;;;4.88;;
23444;SDS011;11895;48.738;9.320;2023-04-22T07:07:04;7.00;;;4.93;;
23444;SDS011;11895;48.738;9.320;2023-04-22T07:09:32;10.35;;;5.00;;
23444;SDS011;11895;48.738;9.320;2023-04-22T07:12:04;7.47;;;5.32;;
23444;SDS011;11895;48.738;9.320;2023-04-22T07:14:32;9.80;;;5.15;;
23444;SDS011;11895;48.738;9.320;2023-04-22T07:17:00;8.20;;;4.75;;
23444;SDS011;11895;48.738;9.320;2023-04-22T07:19:27;7.47;;;4.97;;
23444;SDS011;11895;48.738;9.320;2023-04-22T07:21:55;7.85;;;4.97;;
23444;SDS011;11895;48.738;9.320;2023-04-22T07:24:23;13.23;;;5.25;;
23444;SDS011;11895;48.738;9.320;2023-04-22T07:26:51;10.53;;;5.17;;
23444;SDS011;11895;48.738;9.320;2023-04-22T07:29:20;9.18;;;4.47;;
23444;SDS011;11895;48.738;9.320;2023-04-22T07:31:48;6.30;;;4.53;;
23444;SDS011;11895;48.738;9.320;2023-04-22T07:34:16;7.70;;;4.85;;
23444;SDS011;11895;48.738;9.320;2023-04-22T07:36:45;9.68;;;4.70;;
23444;SDS011;11895;48.738;9.320;2023-04-22T07:39:12;9.32;;;4.60;;
23444;SDS011;11895;48.738;9.320;2023-04-22T07:41:40;6.20;;;4.32;;
23444;SDS011;11895;48.738;9.320;2023-04-22T07:44:08;6.07;;;4.13;;
23444;SDS011;11895;48.738;9.320;2023-04-22T07:46:38;7.60;;;4.70;;
23444;SDS011;11895;48.738;9.320;2023-04-22T07:49:06;6.68;;;4.50;;
23444;SDS011;11895;48.738;9.320;2023-04-22T07:51:35;10.65;;;4.72;;
23444;SDS011;11895;48.738;9.320;2023-04-22T07:54:02;8.95;;;4.53;;
23444;SDS011;11895;48.738;9.320;2023-04-22T07:56:30;6.07;;;4.20;;
23444;SDS011;11895;48.738;9.320;2023-04-22T07:58:59;7.88;;;4.40;;
23444;SDS011;11895;48.738;9.320;2023-04-22T08:01:27;12.32;;;5.72;;
23444;SDS011;11895;48.738;9.320;2023-04-22T08:03:55;7.50;;;4.63;;
23444;SDS011;11895;48.738;9.320;2023-04-22T08:06:23;7.65;;;4.50;;
23444;SDS011;11895;48.738;9.320;2023-04-22T08:08:51;10.57;;;4.72;;
23444;SDS011;11895;48.738;9.320;2023-04-22T08:11:19;7.95;;;4.65;;
23444;SDS011;11895;48.738;9.320;2023-04-22T08:13:47;12.25;;;4.53;;
23444;SDS011;11895;48.738;9.320;2023-04-22T08:16:15;6.78;;;3.97;;
23444;SDS011;11895;48.738;9.320;2023-04-22T08:18:44;7.17;;;4.50;;
23444;SDS011;11895;48.738;9.320;2023-04-22T08:21:11;9.15;;;4.50;;
23444;SDS011;11895;48.738;9.320;2023-04-22T08:23:39;6.43;;;4.50;;
23444;SDS011;11895;48.738;9.320;2023-04-22T08:26:07;6.82;;;4.95;;
23444;SDS011;11895;48.738;9.320;2023-04-22T08:28:40;6.43;;;4.22;;
23444;SDS011;11895;48.738;9.320;2023-04-22T08:31:10;6.15;;;4.40;;
23444;SDS011;11895;48.738;9.320;2023-04-22T08:33:39;8.73;;;4.53;;
23444;SDS011;11895;48.738;9.320;2023-04-22T08:36:07;4.80;;;3.63;;
23444;SDS011;11895;48.738;9.320;2023-04-22T08:38:36;6.13;;;3.78;;
23444;SDS011;11895;48.738;9.320;2023-04-22T08:41:04;10.80;;;3.97;;
23444;SDS011;11895;48.738;9.320;2023-04-22T08:43:33;8.05;;;2.95;;
23444;SDS011;11895;48.738;9.320;2023-04-22T08:46:07;10.77;;;5.20;;
23444;SDS011;11895;48.738;9.320;2023-04-22T08:48:34;7.40;;;3.25;;
23444;SDS011;11895;48.738;9.320;2023-04-22T08:51:03;6.53;;;3.80;;
23444;SDS011;11895;48.738;9.320;2023-04-22T08:53:32;8.80;;;4.28;;
23444;SDS011;11895;48.738;9.320;2023-04-22T08:56:00;5.95;;;3.60;;
23444;SDS011;11895;48.738;9.320;2023-04-22T08:58:28;8.63;;;5.45;;
23444;SDS011;11895;48.738;9.320;2023-04-22T09:00:58;5.00;;;4.07;;
23444;SDS011;11895;48.738;9.320;2023-04-22T09:03:26;5.78;;;4.00;;
23444;SDS011;11895;48.738;9.320;2023-04-22T09:05:55;7.32;;;4.15;;
23444;SDS011;11895;48.738;9.320;2023-04-22T09:08:29;7.15;;;3.05;;
23444;SDS011;11895;48.738;9.320;2023-04-22T09:10:58;7.97;;;3.70;;
23444;SDS011;11895;48.738;9.320;2023-04-22T09:13:26;7.63;;;3.70;;
23444;SDS011;11895;48.738;9.320;2023-04-22T09:15:54;8.88;;;3.08;;
23444;SDS011;11895;48.738;9.320;2023-04-22T09:18:25;4.78;;;2.83;;
23444;SDS011;11895;48.738;9.320;2023-04-22T09:20:54;12.60;;;5.65;;
23444;SDS011;11895;48.738;9.320;2023-04-22T09:23:22;6.25;;;2.97;;
23444;SDS011;11895;48.738;9.320;2023-04-22T09:25:50;3.63;;;2.60;;
23444;SDS011;11895;48.738;9.320;2023-04-22T09:28:19;7.03;;;4.15;;
23444;SDS011;11895;48.738;9.320;2023-04-22T09:30:47;8.30;;;4.28;;
23444;SDS011;11895;48.738;9.320;2023-04-22T09:33:14;5.80;;;3.10;;
23444;SDS011;11895;48.738;9.320;2023-04-22T09:35:42;4.27;;;2.80;;
23444;SDS011;11895;48.738;9.320;2023-04-22T09:38:11;24.23;;;7.07;;
23444;SDS011;11895;48.738;9.320;2023-04-22T09:40:42;7.57;;;4.03;;
23444;SDS011;11895;48.738;9.320;2023-04-22T09:43:17;6.68;;;3.35;;
23444;SDS011;11895;48.738;9.320;2023-04-22T09:45:46;15.82;;;10.32;;
23444;SDS011;11895;48.738;9.320;2023-04-22T09:48:14;22.60;;;5.70;;
23444;SDS011;11895;48.738;9.320;2023-04-22T09:50:45;8.00;;;3.13;;
23444;SDS011;11895;48.738;9.320;2023-04-22T09:53:17;6.78;;;2.95;;
23444;SDS011;11895;48.738;9.320;2023-04-22T09:55:48;8.55;;;2.63;;
23444;SDS011;11895;48.738;9.320;2023-04-22T09:58:18;6.90;;;4.25;;
23444;SDS011;11895;48.738;9.320;2023-04-22T10:00:54;7.65;;;3.40;;
23444;SDS011;11895;48.738;9.320;2023-04-22T10:03:24;13.27;;;3.45;;
23444;SDS011;11895;48.738;9.320;2023-04-22T10:05:52;6.57;;;2.63;;
23444;SDS011;11895;48.738;9.320;2023-04-22T10:08:20;5.93;;;1.95;;
23444;SDS011;11895;48.738;9.320;2023-04-22T10:10:50;8.27;;;3.08;;
23444;SDS011;11895;48.738;9.320;2023-04-22T10:13:19;4.47;;;2.22;;
23444;SDS011;11895;48.738;9.320;2023-04-22T10:18:22;2.80;;;2.08;;
23444;SDS011;11895;48.738;9.320;2023-04-22T10:20:53;4.95;;;2.42;;
23444;SDS011;11895;48.738;9.320;2023-04-22T10:23:23;3.30;;;2.10;;
23444;SDS011;11895;48.738;9.320;2023-04-22T10:25:54;2.80;;;1.80;;
23444;SDS011;11895;48.738;9.320;2023-04-22T10:28:23;3.05;;;1.85;;
23444;SDS011;11895;48.738;9.320;2023-04-22T10:30:55;3.80;;;1.63;;
23444;SDS011;11895;48.738;9.320;2023-04-22T10:41:22;3.72;;;2.50;;
23444;SDS011;11895;48.738;9.320;2023-04-22T10:43:55;3.60;;;2.30;;
23444;SDS011;11895;48.738;9.320;2023-04-22T10:49:13;4.97;;;2.35;;
23444;SDS011;11895;48.738;9.320;2023-04-22T10:52:07;4.20;;;2.30;;
23444;SDS011;11895;48.738;9.320;2023-04-22T10:54:55;2.38;;;1.80;;
23444;SDS011;11895;48.738;9.320;2023-04-22T10:57:28;7.15;;;2.70;;
23444;SDS011;11895;48.738;9.320;2023-04-22T11:00:16;7.93;;;1.90;;
23444;SDS011;11895;48.738;9.320;2023-04-22T11:03:17;5.07;;;2.80;;
23444;SDS011;11895;48.738;9.320;2023-04-22T11:06:11;2.83;;;1.60;;
23444;SDS011;11895;48.738;9.320;2023-04-22T11:09:07;6.13;;;3.55;;
23444;SDS011;11895;48.738;9.320;2023-04-22T11:11:38;15.38;;;8.63;;
23444;SDS011;11895;48.738;9.320;2023-04-22T11:14:13;4.63;;;2.78;;
23444;SDS011;11895;48.738;9.320;2023-04-22T11:16:46;5.68;;;3.38;;
23444;SDS011;11895;48.738;9.320;2023-04-22T11:19:13;3.70;;;2.60;;
23444;SDS011;11895;48.738;9.320;2023-04-22T11:21:43;7.20;;;3.42;;
23444;SDS011;11895;48.738;9.320;2023-04-22T11:24:10;3.05;;;2.17;;
23444;SDS011;11895;48.738;9.320;2023-04-22T11:26:43;2.28;;;1.63;;
23444;SDS011;11895;48.738;9.320;2023-04-22T11:29:37;3.65;;;1.20;;
23444;SDS011;11895;48.738;9.320;2023-04-22T11:32:05;5.25;;;1.92;;
23444;SDS011;11895;48.738;9.320;2023-04-22T11:34:36;2.45;;;1.45;;
23444;SDS011;11895;48.738;9.320;2023-04-22T11:37:04;2.85;;;1.40;;
23444;SDS011;11895;48.738;9.320;2023-04-22T11:39:35;4.15;;;1.15;;
23444;SDS011;11895;48.738;9.320;2023-04-22T11:42:21;6.50;;;2.45;;
23444;SDS011;11895;48.738;9.320;2023-04-22T11:44:52;4.72;;;1.40;;
23444;SDS011;11895;48.738;9.320;2023-04-22T11:47:19;6.07;;;1.33;;
23444;SDS011;11895;48.738;9.320;2023-04-22T11:49:54;7.40;;;2.17;;
23444;SDS011;11895;48.738;9.320;2023-04-22T11:55:25;3.15;;;1.30;;
23444;SDS011;11895;48.738;9.320;2023-04-22T12:00:36;4.57;;;1.30;;
23444;SDS011;11895;48.738;9.320;2023-04-22T12:05:50;3.70;;;1.55;;
23444;SDS011;11895;48.738;9.320;2023-04-22T12:11:02;8.88;;;3.67;;
23444;SDS011;11895;48.738;9.320;2023-04-22T12:13:39;2.38;;;1.45;;
23444;SDS011;11895;48.738;9.320;2023-04-22T12:18:54;2.85;;;1.05;;
23444;SDS011;11895;48.738;9.320;2023-04-22T12:21:22;2.42;;;1.30;;
23444;SDS011;11895;48.738;9.320;2023-04-22T12:23:56;4.53;;;1.08;;
23444;SDS011;11895;48.738;9.320;2023-04-22T12:26:29;6.32;;;1.30;;
23444;SDS011;11895;48.738;9.320;2023-04-22T12:28:57;3.83;;;1.33;;
23444;SDS011;11895;48.738;9.320;2023-04-22T12:33:54;4.63;;;1.27;;
23444;SDS011;11895;48.738;9.320;2023-04-22T12:36:22;3.13;;;1.45;;
23444;SDS011;11895;48.738;9.320;2023-04-22T12:38:52;4.82;;;1.48;;
23444;SDS011;11895;48.738;9.320;2023-04-22T12:41:20;4.53;;;1.30;;
23444;SDS011;11895;48.738;9.320;2023-04-22T12:43:49;4.35;;;1.40;;
23444;SDS011;11895;48.738;9.320;2023-04-22T12:46:18;8.02;;;1.50;;
23444;SDS011;11895;48.738;9.320;2023-04-22T12:48:46;3.42;;;1.23;;
23444;SDS011;11895;48.738;9.320;2023-04-22T12:51:14;6.27;;;1.10;;
23444;SDS011;11895;48.738;9.320;2023-04-22T12:53:44;2.95;;;1.35;;
23444;SDS011;11895;48.738;9.320;2023-04-22T12:56:12;2.63;;;1.30;;
23444;SDS011;11895;48.738;9.320;2023-04-22T12:58:40;2.22;;;1.30;;
23444;SDS011;11895;48.738;9.320;2023-04-22T13:01:08;2.47;;;1.10;;
23444;SDS011;11895;48.738;9.320;2023-04-22T13:03:36;1.63;;;1.00;;
23444;SDS011;11895;48.738;9.320;2023-04-22T13:06:03;2.85;;;1.52;;
23444;SDS011;11895;48.738;9.320;2023-04-22T13:08:31;5.43;;;2.47;;
23444;SDS011;11895;48.738;9.320;2023-04-22T13:10:59;4.05;;;1.30;;
23444;SDS011;11895;48.738;9.320;2023-04-22T13:13:27;3.25;;;1.40;;
23444;SDS011;11895;48.738;9.320;2023-04-22T13:15:54;2.60;;;1.10;;
23444;SDS011;11895;48.738;9.320;2023-04-22T13:18:22;3.38;;;1.20;;
23444;SDS011;11895;48.738;9.320;2023-04-22T13:20:50;3.72;;;1.20;;
23444;SDS011;11895;48.738;9.320;2023-04-22T13:23:17;5.03;;;1.30;;
23444;SDS011;11895;48.738;9.320;2023-04-22T13:25:56;3.42;;;1.58;;
23444;SDS011;11895;48.738;9.320;2023-04-22T13:28:24;4.95;;;1.50;;
23444;SDS011;11895;48.738;9.320;2023-04-22T13:30:53;3.65;;;1.60;;
23444;SDS011;11895;48.738;9.320;2023-04-22T13:33:22;5.38;;;1.38;;
23444;SDS011;11895;48.738;9.320;2023-04-22T13:35:49;5.10;;;1.58;;
23444;SDS011;11895;48.738;9.320;2023-04-22T13:38:17;3.10;;;1.27;;
23444;SDS011;11895;48.738;9.320;2023-04-22T13:40:45;4.55;;;1.60;;
23444;SDS011;11895;48.738;9.320;2023-04-22T13:43:13;3.92;;;1.30;;
23444;SDS011;11895;48.738;9.320;2023-04-22T13:45:41;9.35;;;1.58;;
23444;SDS011;11895;48.738;9.320;2023-04-22T13:48:09;4.45;;;1.70;;
23444;SDS011;11895;48.738;9.320;2023-04-22T13:50:37;7.00;;;1.42;;
23444;SDS011;11895;48.738;9.320;2023-04-22T13:53:08;6.15;;;1.70;;
23444;SDS011;11895;48.738;9.320;2023-04-22T13:55:37;3.30;;;1.20;;
23444;SDS011;11895;48.738;9.320;2023-04-22T13:58:05;2.75;;;1.20;;
23444;SDS011;11895;48.738;9.320;2023-04-22T14:00:33;3.47;;;1.50;;
23444;SDS011;11895;48.738;9.320;2023-04-22T14:03:01;5.90;;;1.60;;
23444;SDS011;11895;48.738;9.320;2023-04-22T14:05:30;3.00;;;1.60;;
23444;SDS011;11895;48.738;9.320;2023-04-22T14:07:58;2.22;;;1.30;;
23444;SDS011;11895;48.738;9.320;2023-04-22T14:10:27;5.35;;;1.73;;
23444;SDS011;11895;48.738;9.320;2023-04-22T14:12:54;6.70;;;1.40;;
23444;SDS011;11895;48.738;9.320;2023-04-22T14:15:23;3.00;;;1.20;;
23444;SDS011;11895;48.738;9.320;2023-04-22T14:17:53;2.00;;;1.25;;
23444;SDS011;11895;48.738;9.320;2023-04-22T14:20:22;4.25;;;1.40;;
23444;SDS011;11895;48.738;9.320;2023-04-22T14:22:53;5.47;;;1.40;;
23444;SDS011;11895;48.738;9.320;2023-04-22T14:25:21;8.65;;;1.50;;
23444;SDS011;11895;48.738;9.320;2023-04-22T14:27:49;4.43;;;2.20;;
23444;SDS011;11895;48.738;9.320;2023-04-22T14:30:17;4.03;;;1.80;;
23444;SDS011;11895;48.738;9.320;2023-04-22T14:32:48;4.85;;;2.40;;
23444;SDS011;11895;48.738;9.320;2023-04-22T14:37:44;4.68;;;1.80;;
23444;SDS011;11895;48.738;9.320;2023-04-22T14:40:18;5.90;;;2.00;;
23444;SDS011;11895;48.738;9.320;2023-04-22T14:42:48;3.58;;;1.98;;
23444;SDS011;11895;48.738;9.320;2023-04-22T14:45:16;5.32;;;2.20;;
23444;SDS011;11895;48.738;9.320;2023-04-22T14:47:45;4.77;;;1.73;;
23444;SDS011;11895;48.738;9.320;2023-04-22T14:50:13;6.15;;;2.30;;
23444;SDS011;11895;48.738;9.320;2023-04-22T14:52:41;5.80;;;2.40;;
23444;SDS011;11895;48.738;9.320;2023-04-22T14:55:09;4.03;;;1.52;;
23444;SDS011;11895;48.738;9.320;2023-04-22T14:57:49;4.68;;;1.77;;
23444;SDS011;11895;48.738;9.320;2023-04-22T15:00:24;4.90;;;1.45;;
23444;SDS011;11895;48.738;9.320;2023-04-22T15:02:53;3.30;;;1.60;;
23444;SDS011;11895;48.738;9.320;2023-04-22T15:05:21;4.10;;;2.08;;
23444;SDS011;11895;48.738;9.320;2023-04-22T15:07:50;4.28;;;1.85;;
23444;SDS011;11895;48.738;9.320;2023-04-22T15:12:46;5.23;;;1.63;;
23444;SDS011;11895;48.738;9.320;2023-04-22T15:15:14;3.20;;;1.57;;
23444;SDS011;11895;48.738;9.320;2023-04-22T15:17:44;9.18;;;2.38;;
23444;SDS011;11895;48.738;9.320;2023-04-22T15:20:12;4.35;;;2.47;;
23444;SDS011;11895;48.738;9.320;2023-04-22T15:22:40;6.20;;;2.53;;
23444;SDS011;11895;48.738;9.320;2023-04-22T15:25:09;3.70;;;1.45;;
23444;SDS011;11895;48.738;9.320;2023-04-22T15:27:43;4.78;;;2.05;;
23444;SDS011;11895;48.738;9.320;2023-04-22T15:32:40;4.35;;;1.77;;
23444;SDS011;11895;48.738;9.320;2023-04-22T15:35:08;5.07;;;1.92;;
23444;SDS011;11895;48.738;9.320;2023-04-22T15:37:36;2.75;;;1.65;;
23444;SDS011;11895;48.738;9.320;2023-04-22T15:40:04;7.63;;;1.60;;
23444;SDS011;11895;48.738;9.320;2023-04-22T15:42:33;3.47;;;1.55;;
23444;SDS011;11895;48.738;9.320;2023-04-22T15:45:01;2.60;;;1.45;;
23444;SDS011;11895;48.738;9.320;2023-04-22T15:47:29;7.55;;;1.63;;
23444;SDS011;11895;48.738;9.320;2023-04-22T15:49:58;4.82;;;1.60;;
23444;SDS011;11895;48.738;9.320;2023-04-22T15:52:32;5.75;;;1.38;;